createdAt,value
2019-04-11T00:01:10.113Z,13.80
2019-04-11T00:06:15.589Z,14.07
2019-04-11T00:11:21.894Z,18.13
2019-04-11T00:16:28.953Z,14.93
2019-04-11T00:21:35.637Z,15.37
2019-04-11T00:26:41.332Z,16.63
2019-04-11T00:31:47.947Z,15.47
2019-04-11T00:36:54.800Z,18.27
2019-04-11T00:42:00.292Z,17.63
2019-04-11T00:47:06.852Z,16.00
2019-04-11T00:52:12.196Z,16.43
2019-04-11T00:57:17.528Z,14.83
2019-04-11T01:02:23.166Z,14.37
2019-04-11T01:07:29.103Z,14.53
2019-04-11T01:12:34.489Z,17.80
2019-04-11T01:17:39.824Z,14.90
2019-04-11T01:22:45.132Z,14.90
2019-04-11T01:27:51.548Z,13.90
2019-04-11T01:32:56.980Z,14.63
2019-04-11T01:38:02.286Z,13.67
2019-04-11T01:43:08.121Z,15.37
2019-04-11T01:48:19.509Z,19.13
2019-04-11T01:53:24.936Z,17.73
2019-04-11T01:58:30.924Z,18.13
2019-04-11T02:03:55.310Z,14.80
2019-04-11T02:09:01.836Z,16.40
2019-04-11T02:14:15.568Z,16.17
2019-04-11T02:19:16.232Z,16.00
2019-04-11T02:24:30.024Z,15.63
2019-04-11T02:29:35.484Z,16.00
2019-04-11T02:34:41.184Z,18.57
2019-04-11T02:39:47.357Z,15.63
2019-04-11T02:45:09.244Z,20.37
2019-04-11T02:50:00.891Z,16.30
2019-04-11T02:55:09.704Z,16.40
2019-04-11T03:00:13.363Z,18.90
2019-04-11T03:05:20.890Z,18.63
2019-04-11T03:10:27.205Z,19.40
2019-04-11T03:15:48.824Z,16.70
2019-04-11T03:20:48.132Z,17.17
2019-04-11T03:25:49.871Z,17.17
2019-04-11T03:31:26.310Z,17.73
2019-04-11T03:41:25.276Z,17.03
2019-04-11T03:46:33.880Z,20.13
2019-04-11T03:51:25.624Z,17.10
2019-04-11T03:56:33.003Z,17.23
2019-04-11T04:01:39.870Z,18.67
2019-04-11T04:06:45.876Z,22.80
2019-04-11T04:11:54.577Z,19.10
2019-04-11T04:17:19.285Z,19.83
2019-04-11T04:22:32.230Z,17.40
2019-04-11T04:27:38.770Z,18.87
2019-04-11T04:32:45.182Z,20.23
2019-04-11T04:37:51.913Z,23.63
2019-04-11T04:42:59.165Z,21.67
2019-04-11T04:48:11.165Z,18.43
2019-04-11T04:53:13.568Z,24.80
2019-04-11T04:58:24.320Z,19.83
2019-04-11T05:03:27.725Z,20.50
2019-04-11T05:08:34.757Z,21.73
2019-04-11T05:13:41.948Z,22.03
2019-04-11T05:18:48.463Z,19.63
2019-04-11T05:23:55.184Z,21.77
2019-04-11T05:29:01.210Z,25.40
2019-04-11T05:34:07.798Z,20.57
2019-04-11T05:39:15.948Z,22.63
2019-04-11T05:44:21.008Z,23.40
2019-04-11T05:49:44.993Z,26.47
2019-04-11T05:54:56.066Z,22.00
2019-04-11T06:00:01.391Z,22.37
2019-04-11T06:05:13.250Z,19.63
2019-04-11T06:10:24.099Z,21.33
2019-04-11T06:15:36.215Z,19.27
2019-04-11T06:20:51.951Z,18.73
2019-04-11T06:26:28.546Z,23.40
2019-04-11T06:31:51.621Z,21.60
2019-04-11T06:37:14.641Z,24.17
2019-04-11T06:42:39.192Z,19.13
2019-04-11T06:48:23.726Z,20.63
2019-04-11T06:53:36.399Z,18.20
2019-04-11T06:58:47.597Z,22.10
2019-04-11T07:03:57.501Z,19.63
2019-04-11T07:09:25.936Z,21.67
2019-04-11T07:14:39.753Z,19.43
2019-04-11T07:19:57.494Z,19.37
2019-04-11T07:25:22.298Z,23.80
2019-04-11T07:31:00.368Z,22.20
2019-04-11T07:36:23.403Z,20.83
2019-04-11T07:41:58.085Z,21.13
2019-04-11T07:47:28.207Z,22.17
2019-04-11T07:52:40.003Z,20.47
2019-04-11T07:57:49.029Z,22.70
2019-04-11T08:03:07.958Z,27.17
2019-04-11T08:08:30.244Z,23.00
2019-04-11T08:13:42.885Z,26.43
2019-04-11T08:19:17.244Z,24.30
2019-04-11T08:24:30.051Z,26.23
2019-04-11T08:29:36.021Z,26.07
2019-04-11T08:34:49.097Z,23.07
2019-04-11T08:39:55.791Z,23.63
2019-04-11T08:45:01.096Z,27.90
2019-04-11T08:50:06.987Z,26.87
2019-04-11T08:55:42.075Z,22.23
2019-04-11T09:00:46.277Z,25.17
2019-04-11T09:06:28.403Z,22.20
2019-04-11T09:11:39.517Z,20.83
2019-04-11T09:17:03.841Z,21.27
2019-04-11T09:22:35.353Z,28.70
2019-04-11T09:27:53.962Z,25.97
2019-04-11T09:33:35.072Z,22.97
2019-04-11T09:38:42.290Z,23.93
2019-04-11T09:43:48.458Z,25.47
2019-04-11T09:49:12.348Z,21.00
2019-04-11T09:54:36.955Z,22.30
2019-04-11T09:59:47.675Z,22.93
2019-04-11T10:04:54.365Z,24.13
2019-04-11T10:10:17.611Z,24.00
2019-04-11T10:15:33.732Z,23.73
2019-04-11T10:20:40.499Z,23.60
2019-04-11T10:25:50.083Z,24.07
2019-04-11T10:31:20.547Z,24.60
2019-04-11T10:36:27.838Z,23.10
2019-04-11T10:41:37.950Z,24.30
2019-04-11T10:46:51.460Z,24.93
2019-04-11T10:52:04.375Z,25.53
2019-04-11T10:57:29.881Z,23.33
2019-04-11T11:02:57.842Z,25.93
2019-04-11T11:08:13.306Z,21.97
2019-04-11T11:13:50.134Z,29.27
2019-04-11T11:19:33.551Z,24.40
2019-04-11T11:24:40.250Z,23.70
2019-04-11T11:30:04.416Z,25.37
2019-04-11T11:35:32.337Z,22.43
2019-04-11T11:40:54.227Z,27.10
2019-04-11T11:46:17.832Z,24.30
2019-04-11T11:51:33.280Z,25.37
2019-04-11T11:56:40.271Z,28.73
2019-04-11T12:02:04.706Z,27.47
2019-04-11T12:07:12.643Z,26.33
2019-04-11T12:12:23.863Z,27.50
2019-04-11T12:18:07.428Z,25.90
2019-04-11T12:23:29.368Z,29.47
2019-04-11T12:28:52.486Z,24.80
2019-04-11T12:34:30.261Z,26.10
2019-04-11T12:40:09.849Z,28.33
2019-04-11T12:45:32.853Z,25.77
2019-04-11T12:50:56.446Z,30.53
2019-04-11T12:56:33.243Z,27.27
2019-04-11T13:01:56.300Z,26.13
2019-04-11T13:07:23.735Z,26.87
2019-04-11T13:12:45.286Z,24.70
2019-04-11T13:18:18.996Z,29.33
2019-04-11T13:23:40.599Z,25.57
2019-04-11T13:28:47.867Z,26.63
2019-04-11T13:33:56.070Z,26.07
2019-04-11T13:39:04.232Z,31.33
2019-04-11T13:44:22.087Z,29.90
2019-04-11T13:49:46.491Z,25.50
2019-04-11T13:55:13.411Z,31.73
2019-04-11T14:00:49.941Z,27.90
2019-04-11T14:05:56.667Z,25.53
2019-04-11T14:11:11.220Z,26.60
2019-04-11T14:16:19.334Z,25.70
2019-04-11T14:21:25.125Z,26.23
2019-04-11T14:26:36.430Z,25.53
2019-04-11T14:31:57.151Z,24.93
2019-04-11T14:37:22.867Z,29.87
2019-04-11T14:42:48.002Z,22.60
2019-04-11T14:48:11.373Z,25.10
2019-04-11T14:53:33.159Z,24.87
2019-04-11T14:58:56.443Z,23.07
2019-04-11T15:04:20.872Z,26.07
2019-04-11T15:09:39.261Z,26.57
2019-04-11T15:15:06.728Z,24.70
2019-04-11T15:20:54.988Z,26.23
2019-04-11T15:26:11.239Z,24.37
2019-04-11T15:31:39.570Z,25.47
2019-04-11T15:36:45.998Z,26.00
2019-04-11T15:41:58.143Z,22.53
2019-04-11T15:47:00.879Z,20.90
2019-04-11T15:52:15.681Z,24.80
2019-04-11T15:57:53.130Z,22.63
2019-04-11T16:03:16.453Z,23.27
2019-04-11T16:08:29.531Z,24.03
2019-04-11T16:13:50.847Z,20.63
2019-04-11T16:19:14.741Z,20.20
2019-04-11T16:24:28.171Z,22.50
2019-04-11T16:29:41.077Z,20.53
2019-04-11T16:34:58.885Z,19.50
2019-04-11T16:40:32.263Z,19.67
2019-04-11T16:45:57.493Z,19.90
2019-04-11T16:51:05.605Z,20.13
2019-04-11T16:56:12.574Z,22.27
2019-04-11T17:01:17.645Z,23.03
2019-04-11T17:06:45.112Z,23.57
2019-04-11T17:11:50.614Z,22.60
2019-04-11T17:16:56.316Z,29.83
2019-04-11T17:22:03.086Z,27.93
2019-04-11T17:27:08.967Z,26.67
2019-04-11T17:32:14.642Z,25.30
2019-04-11T17:37:20.218Z,28.77
2019-04-11T17:42:31.026Z,22.97
2019-04-11T17:47:36.654Z,27.43
2019-04-11T17:52:42.328Z,30.10
2019-04-11T17:57:48.000Z,24.57
2019-04-11T18:02:53.769Z,21.23
2019-04-11T18:07:59.503Z,33.57
2019-04-11T18:13:06.072Z,23.67
2019-04-11T18:18:11.623Z,18.87
2019-04-11T18:23:19.673Z,21.37
2019-04-11T18:28:24.376Z,21.03
2019-04-11T18:33:31.763Z,25.53
2019-04-11T18:38:37.071Z,22.73
2019-04-11T18:43:42.387Z,22.67
2019-04-11T18:48:47.904Z,19.90
2019-04-11T18:53:53.301Z,18.03
2019-04-11T18:58:58.906Z,18.73
2019-04-11T19:04:04.259Z,19.90
2019-04-11T19:09:13.842Z,18.03
2019-04-11T19:14:19.164Z,20.17
2019-04-11T19:19:27.304Z,23.00
2019-04-11T19:24:35.603Z,20.40
2019-04-11T19:29:40.434Z,21.13
2019-04-11T19:34:46.035Z,21.03
2019-04-11T19:39:51.793Z,21.57
2019-04-11T19:44:57.299Z,22.57
2019-04-11T19:50:02.912Z,22.63
2019-04-11T19:55:24.387Z,18.33
2019-04-11T20:00:29.990Z,15.87
2019-04-11T20:05:35.527Z,22.33
2019-04-11T20:10:41.091Z,22.17
2019-04-11T20:15:46.616Z,18.13
2019-04-11T20:20:52.391Z,20.53
2019-04-11T20:25:58.957Z,19.90
2019-04-11T20:31:04.614Z,18.40
2019-04-11T20:36:11.542Z,15.00
2019-04-11T20:41:17.843Z,16.80
2019-04-11T20:46:23.415Z,16.43
2019-04-11T20:51:29.472Z,15.40
2019-04-11T20:56:35.154Z,13.97
2019-04-11T21:01:42.037Z,12.20
2019-04-11T21:06:48.439Z,11.60
2019-04-11T21:11:54.695Z,9.70
2019-04-11T21:17:00.486Z,9.77
2019-04-11T21:22:06.528Z,7.93
2019-04-11T21:27:12.003Z,8.43
2019-04-11T21:32:17.388Z,7.90
2019-04-11T21:37:23.686Z,7.77
2019-04-11T21:42:29.162Z,7.83
2019-04-11T21:47:37.389Z,9.37
2019-04-11T21:52:44.268Z,9.40
2019-04-11T21:57:50.396Z,9.47
2019-04-11T22:02:55.960Z,9.00
2019-04-11T22:08:03.697Z,9.60
2019-04-11T22:13:10.046Z,9.03
2019-04-11T22:18:16.814Z,8.13
2019-04-11T22:23:22.333Z,9.17
2019-04-11T22:28:27.628Z,9.57
2019-04-11T22:34:01.127Z,8.70
2019-04-11T22:39:10.440Z,13.80
2019-04-11T22:44:15.764Z,8.97
2019-04-11T22:49:21.055Z,10.00
2019-04-11T22:54:26.375Z,10.60
2019-04-11T22:59:31.705Z,7.70
2019-04-11T23:04:37.996Z,7.83
2019-04-11T23:09:43.392Z,9.17
2019-04-11T23:14:48.707Z,9.73
2019-04-11T23:19:54.006Z,8.67
2019-04-11T23:24:59.299Z,9.27
2019-04-11T23:30:05.019Z,11.83
2019-04-11T23:35:10.324Z,11.43
2019-04-11T23:40:15.608Z,7.57
2019-04-11T23:45:24.103Z,8.07
2019-04-11T23:50:29.483Z,11.30
2019-04-11T23:55:34.778Z,9.43
